Time;durP1;ratioP1;P1;durP2;ratioP2;P2;SDS_P1;SDS_P2;PMS_P1;PMS_P2;Temp;Humidity;BMP_temperature;BMP_pressure;BME280_temperature;BME280_humidity;BME280_pressure;Samples;Min_cycle;Max_cycle;Signal;HPM_P1;HPM_P2
2021/04/07 00:00:07;;;;;;;5.57;2.70;;;0.50;97.30;;;;;;4974894;28;20421;-84
2021/04/07 00:02:32;;;;;;;3.87;2.90;;;0.50;97.30;;;;;;4973326;28;20901;-84
2021/04/07 00:05:01;;;;;;;6.23;3.70;;;0.50;97.30;;;;;;4972856;28;20441;-84
2021/04/07 00:07:27;;;;;;;5.03;2.90;;;0.50;97.30;;;;;;4973171;28;20182;-84
2021/04/07 00:09:53;;;;;;;3.60;2.77;;;0.50;97.30;;;;;;4987056;28;20570;-84
2021/04/07 00:12:19;;;;;;;2.70;2.50;;;0.50;97.30;;;;;;4991900;28;20500;-84
2021/04/07 00:14:47;;;;;;;5.17;2.70;;;0.50;97.30;;;;;;4990808;28;20229;-84
2021/04/07 00:17:13;;;;;;;3.67;2.57;;;0.60;97.30;;;;;;4995927;28;20429;-84
2021/04/07 00:19:38;;;;;;;2.57;2.33;;;0.60;97.30;;;;;;5005637;28;20479;-84
2021/04/07 00:22:04;;;;;;;3.70;2.90;;;0.60;97.30;;;;;;5007314;28;20177;-84
2021/04/07 00:24:29;;;;;;;8.50;2.70;;;0.60;97.30;;;;;;4991113;28;20198;-84
2021/04/07 00:26:55;;;;;;;6.10;3.00;;;0.60;97.30;;;;;;4990951;28;20200;-84
2021/04/07 00:29:21;;;;;;;3.80;2.73;;;0.60;97.30;;;;;;4990748;28;20189;-84
2021/04/07 00:31:46;;;;;;;6.93;2.83;;;0.60;97.30;;;;;;4990440;28;20216;-84
2021/04/07 00:34:12;;;;;;;3.60;2.63;;;0.70;97.30;;;;;;4990747;28;20221;-84
2021/04/07 00:36:38;;;;;;;3.70;3.00;;;0.70;97.30;;;;;;4990447;28;20707;-85
2021/04/07 00:39:03;;;;;;;2.53;2.33;;;0.70;97.30;;;;;;4991690;28;20590;-84
2021/04/07 00:41:30;;;;;;;3.80;2.50;;;0.70;97.30;;;;;;4990910;28;20209;-84
2021/04/07 00:44:01;;;;;;;5.03;2.70;;;0.70;97.30;;;;;;5006662;28;20864;-84
2021/04/07 00:46:27;;;;;;;7.30;2.63;;;0.70;97.30;;;;;;4992315;28;20174;-84
2021/04/07 00:48:52;;;;;;;6.10;3.77;;;0.70;97.30;;;;;;4990514;28;20450;-85
2021/04/07 00:51:18;;;;;;;9.00;3.70;;;0.70;97.30;;;;;;4990964;28;20192;-84
2021/04/07 00:53:43;;;;;;;4.10;2.87;;;0.70;97.30;;;;;;4992073;28;20182;-85
2021/04/07 00:56:09;;;;;;;3.07;2.80;;;0.70;97.30;;;;;;4990579;28;20290;-84
2021/04/07 00:58:35;;;;;;;4.63;3.10;;;0.70;97.30;;;;;;4991673;28;20241;-85
2021/04/07 01:01:00;;;;;;;5.90;3.20;;;0.70;97.30;;;;;;4991642;28;20184;-84
2021/04/07 01:03:26;;;;;;;4.90;2.67;;;0.70;97.30;;;;;;4992064;28;20178;-84
2021/04/07 01:05:54;;;;;;;5.10;3.27;;;0.70;97.30;;;;;;4991832;28;20572;-84
2021/04/07 01:08:20;;;;;;;7.60;3.40;;;0.70;97.30;;;;;;5008608;28;20182;-84
2021/04/07 01:10:46;;;;;;;9.70;3.47;;;0.70;97.30;;;;;;4993504;28;20414;-84
2021/04/07 01:13:12;;;;;;;4.80;3.40;;;0.70;97.30;;;;;;4993794;28;20263;-85
2021/04/07 01:15:37;;;;;;;6.63;3.43;;;0.70;97.30;;;;;;4992300;28;20468;-84
2021/04/07 01:18:03;;;;;;;5.47;3.53;;;0.70;97.30;;;;;;4992058;28;20641;-84
2021/04/07 01:20:29;;;;;;;4.37;3.23;;;0.70;97.30;;;;;;4992509;28;20174;-84
2021/04/07 01:22:59;;;;;;;7.47;3.20;;;0.70;97.30;;;;;;4992174;28;20605;-85
2021/04/07 01:25:25;;;;;;;6.97;3.50;;;0.70;97.30;;;;;;4991994;28;20198;-85
2021/04/07 01:27:51;;;;;;;7.57;3.20;;;0.70;97.30;;;;;;4991857;28;20504;-84
2021/04/07 01:30:18;;;;;;;7.50;3.33;;;0.70;97.30;;;;;;4993041;28;20582;-84
2021/04/07 01:32:44;;;;;;;4.40;2.60;;;0.70;97.30;;;;;;4994865;28;20460;-84
2021/04/07 01:35:12;;;;;;;7.53;3.73;;;0.70;97.30;;;;;;4994588;28;20467;-84
2021/04/07 01:37:37;;;;;;;5.37;3.30;;;0.70;97.30;;;;;;4994820;28;20425;-85
2021/04/07 01:40:06;;;;;;;5.53;3.20;;;0.70;97.30;;;;;;4995071;28;20992;-83
2021/04/07 01:42:33;;;;;;;8.53;3.70;;;0.70;97.30;;;;;;4995388;28;20415;-84
2021/04/07 01:45:01;;;;;;;6.23;3.10;;;0.70;97.30;;;;;;4995012;28;20909;-84
2021/04/07 01:47:28;;;;;;;4.27;3.17;;;0.80;97.30;;;;;;4995391;28;20436;-84
2021/04/07 01:49:54;;;;;;;4.23;3.00;;;0.80;97.30;;;;;;4995994;28;20413;-84
2021/04/07 01:52:19;;;;;;;7.13;3.80;;;0.80;97.30;;;;;;5011062;28;20445;-84
2021/04/07 01:54:45;;;;;;;4.97;2.70;;;0.80;97.30;;;;;;5010926;28;20960;-85
2021/04/07 01:57:11;;;;;;;7.33;3.90;;;0.80;97.30;;;;;;5010695;28;20207;-85
2021/04/07 01:59:36;;;;;;;4.83;3.63;;;0.80;97.30;;;;;;5011228;28;20205;-84
2021/04/07 02:02:03;;;;;;;5.30;3.17;;;0.80;97.30;;;;;;5009595;28;20174;-84
2021/04/07 02:04:29;;;;;;;5.67;3.77;;;0.80;97.30;;;;;;4994629;28;20403;-84
2021/04/07 02:06:55;;;;;;;4.47;3.30;;;0.80;97.30;;;;;;5009190;28;20443;-84
2021/04/07 02:09:21;;;;;;;8.07;3.90;;;0.80;97.30;;;;;;4998419;28;20269;-84
2021/04/07 02:11:49;;;;;;;7.50;3.90;;;0.80;97.30;;;;;;4973993;28;20887;-84
2021/04/07 02:14:33;;;;;;;6.03;3.33;;;0.80;97.30;;;;;;4973743;28;20190;-84
2021/04/07 02:17:02;;;;;;;5.90;3.77;;;0.80;97.30;;;;;;4973446;28;20460;-84
2021/04/07 02:19:29;;;;;;;5.33;3.63;;;0.90;97.30;;;;;;4973848;28;20465;-84
2021/04/07 02:22:09;;;;;;;5.37;3.60;;;0.90;97.30;;;;;;4973283;28;20773;-84
2021/04/07 02:24:41;;;;;;;6.00;3.40;;;0.90;97.30;;;;;;4974432;28;20506;-84
2021/04/07 02:27:34;;;;;;;7.13;4.00;;;0.90;97.30;;;;;;4975031;28;20417;-84
2021/04/07 02:30:00;;;;;;;8.30;3.57;;;0.90;97.30;;;;;;4972897;28;20425;-84
2021/04/07 02:32:26;;;;;;;7.50;4.37;;;0.90;97.30;;;;;;4973253;28;20929;-84
2021/04/07 02:34:52;;;;;;;6.80;3.87;;;0.90;97.30;;;;;;4974329;28;20474;-84
2021/04/07 02:37:19;;;;;;;5.90;3.83;;;0.90;97.30;;;;;;4975825;28;20178;-84
2021/04/07 02:39:46;;;;;;;9.90;3.80;;;0.90;97.30;;;;;;4975884;28;20988;-84
2021/04/07 02:42:12;;;;;;;6.23;4.03;;;0.90;97.30;;;;;;4976047;28;20414;-84
2021/04/07 02:44:38;;;;;;;6.70;3.87;;;0.90;97.30;;;;;;4977114;28;20430;-85
2021/04/07 02:47:05;;;;;;;8.00;5.10;;;0.90;97.30;;;;;;4984089;28;20414;-84
2021/04/07 02:49:31;;;;;;;7.53;3.83;;;0.90;97.30;;;;;;5012674;28;20424;-84
2021/04/07 02:51:57;;;;;;;13.53;4.07;;;0.90;97.30;;;;;;4997145;28;20465;-84
2021/04/07 02:54:23;;;;;;;8.20;4.80;;;0.90;97.30;;;;;;5011770;28;20527;-84
2021/04/07 02:56:49;;;;;;;8.77;4.47;;;0.90;97.30;;;;;;5012066;28;20719;-84
2021/04/07 02:59:14;;;;;;;9.90;4.50;;;0.90;97.30;;;;;;5011723;28;20208;-83
2021/04/07 03:01:40;;;;;;;5.87;3.77;;;0.90;97.30;;;;;;5011985;28;20405;-84
2021/04/07 03:04:06;;;;;;;6.90;3.90;;;0.90;97.30;;;;;;5012111;28;20181;-84
2021/04/07 03:06:32;;;;;;;6.83;3.67;;;0.90;97.30;;;;;;5012092;28;20215;-84
2021/04/07 03:08:58;;;;;;;8.30;4.40;;;0.90;97.30;;;;;;5011568;28;20422;-84
2021/04/07 03:11:25;;;;;;;6.30;3.90;;;0.90;97.30;;;;;;4996302;28;20208;-85
2021/04/07 03:13:50;;;;;;;5.73;3.83;;;0.90;97.30;;;;;;5011283;28;20420;-84
2021/04/07 03:16:16;;;;;;;8.20;4.00;;;0.90;97.30;;;;;;5010560;28;20495;-84
2021/04/07 03:18:41;;;;;;;5.47;3.80;;;0.90;97.30;;;;;;5010466;28;20244;-84
2021/04/07 03:21:07;;;;;;;7.73;4.43;;;0.90;97.30;;;;;;5010674;28;20236;-84
2021/04/07 03:23:32;;;;;;;7.87;4.57;;;0.90;97.30;;;;;;5010764;28;20189;-84
2021/04/07 03:25:58;;;;;;;9.13;4.70;;;0.90;97.30;;;;;;5010613;28;20209;-84
2021/04/07 03:28:27;;;;;;;11.60;4.50;;;0.90;97.30;;;;;;5010494;28;20181;-84
2021/04/07 03:30:52;;;;;;;7.03;3.90;;;0.80;97.30;;;;;;5011137;28;20213;-84
2021/04/07 03:33:19;;;;;;;7.00;4.23;;;0.70;97.30;;;;;;5011214;28;20830;-84
2021/04/07 03:35:45;;;;;;;7.00;4.07;;;0.60;97.30;;;;;;5011243;28;20206;-84
2021/04/07 03:38:11;;;;;;;8.77;5.03;;;0.60;97.30;;;;;;5011292;28;20990;-84
2021/04/07 03:40:38;;;;;;;8.53;4.70;;;0.50;97.30;;;;;;5010897;28;20413;-84
2021/04/07 03:43:05;;;;;;;7.77;4.80;;;0.50;97.30;;;;;;4995514;28;20419;-84
2021/04/07 03:45:31;;;;;;;8.07;3.90;;;0.50;97.30;;;;;;5010739;28;20436;-84
2021/04/07 03:47:57;;;;;;;6.30;4.40;;;0.50;97.30;;;;;;4995720;28;20422;-84
2021/04/07 03:50:23;;;;;;;10.23;4.90;;;0.50;97.30;;;;;;4975015;28;20429;-84
2021/04/07 03:52:48;;;;;;;9.27;4.53;;;0.50;97.30;;;;;;4975830;28;20182;-84
2021/04/07 03:55:14;;;;;;;9.23;5.47;;;0.50;97.30;;;;;;4974051;28;20202;-84
2021/04/07 03:57:40;;;;;;;11.07;5.53;;;0.50;97.30;;;;;;4975571;28;20532;-84
2021/04/07 04:00:06;;;;;;;8.53;5.13;;;0.40;97.30;;;;;;4993200;28;20278;-84
2021/04/07 04:02:31;;;;;;;9.47;4.83;;;0.40;97.30;;;;;;4993763;28;20187;-84
2021/04/07 04:04:57;;;;;;;11.50;4.70;;;0.40;97.30;;;;;;4992846;28;20442;-84
2021/04/07 04:07:23;;;;;;;8.10;4.40;;;0.30;97.30;;;;;;4992676;28;20188;-84
2021/04/07 04:09:48;;;;;;;8.67;5.20;;;0.30;97.30;;;;;;4992817;28;20225;-84
2021/04/07 04:12:14;;;;;;;11.10;6.20;;;0.30;97.30;;;;;;4992650;28;20196;-84
2021/04/07 04:14:39;;;;;;;9.80;5.40;;;0.30;97.30;;;;;;5018821;23;20241;-89
2021/04/07 04:17:06;;;;;;;9.67;4.50;;;0.30;97.30;;;;;;5012533;28;20203;-88
2021/04/07 04:19:31;;;;;;;11.90;4.60;;;0.30;97.30;;;;;;5012824;28;20263;-87
2021/04/07 04:21:57;;;;;;;8.53;5.20;;;0.30;97.30;;;;;;5013191;28;20455;-87
2021/04/07 04:24:23;;;;;;;10.30;5.20;;;0.30;97.30;;;;;;5013349;28;20173;-88
2021/04/07 04:26:48;;;;;;;12.50;5.70;;;0.30;97.30;;;;;;5013022;28;20193;-87
2021/04/07 04:29:14;;;;;;;10.53;5.60;;;0.30;97.30;;;;;;5013439;28;20264;-87
2021/04/07 04:31:40;;;;;;;10.90;4.47;;;0.30;97.30;;;;;;5014004;28;20177;-87
2021/04/07 04:34:05;;;;;;;11.07;4.67;;;0.30;97.30;;;;;;5013174;28;20181;-87
2021/04/07 04:36:31;;;;;;;12.63;5.93;;;0.30;97.30;;;;;;4996977;28;20224;-87
2021/04/07 04:38:56;;;;;;;9.80;6.07;;;0.30;97.30;;;;;;5013352;28;20211;-87
2021/04/07 04:41:22;;;;;;;13.90;5.37;;;0.30;97.30;;;;;;5013539;28;20178;-88
2021/04/07 04:43:48;;;;;;;10.53;5.47;;;0.30;97.30;;;;;;5013353;28;20604;-87
2021/04/07 04:46:13;;;;;;;11.07;5.87;;;0.40;97.30;;;;;;5012653;28;20292;-87
2021/04/07 04:48:39;;;;;;;16.60;4.93;;;0.40;97.30;;;;;;4993687;28;20652;-86
2021/04/07 04:51:05;;;;;;;13.60;5.17;;;0.40;97.30;;;;;;4993566;28;20185;-87
2021/04/07 04:53:30;;;;;;;13.20;6.10;;;0.40;97.30;;;;;;4993313;28;20236;-88
2021/04/07 04:55:56;;;;;;;13.37;5.77;;;0.40;97.30;;;;;;4993366;28;20201;-88
2021/04/07 04:58:21;;;;;;;19.47;6.17;;;0.40;97.30;;;;;;4993298;28;20209;-89
2021/04/07 05:00:47;;;;;;;17.97;5.93;;;0.40;97.30;;;;;;4992308;28;20178;-89
2021/04/07 05:03:13;;;;;;;20.50;6.70;;;0.40;97.30;;;;;;5001094;28;20185;-87
2021/04/07 05:05:38;;;;;;;14.43;6.47;;;0.50;97.30;;;;;;4993683;28;20209;-86
2021/04/07 05:08:04;;;;;;;15.13;7.47;;;0.50;97.30;;;;;;5002061;28;20178;-88
2021/04/07 05:10:33;;;;;;;9.67;6.27;;;0.50;97.30;;;;;;4990937;28;20185;-88
2021/04/07 05:12:59;;;;;;;15.67;5.73;;;0.50;97.30;;;;;;4996245;28;20416;-89
2021/04/07 05:15:24;;;;;;;12.40;6.43;;;0.60;97.30;;;;;;5018283;23;21032;-71
2021/04/07 05:17:50;;;;;;;9.03;5.30;;;0.60;97.30;;;;;;5039625;28;20227;-72
2021/04/07 05:20:16;;;;;;;11.47;6.10;;;0.60;97.30;;;;;;5047609;28;20168;-71
2021/04/07 05:22:43;;;;;;;12.17;6.00;;;0.70;97.30;;;;;;5054921;28;20442;-71
2021/04/07 05:25:09;;;;;;;12.83;6.00;;;0.70;97.30;;;;;;5037015;28;20177;-72
2021/04/07 05:27:35;;;;;;;9.40;6.03;;;0.70;97.30;;;;;;5014085;28;20816;-71
2021/04/07 05:30:01;;;;;;;10.73;6.17;;;0.70;97.30;;;;;;5016944;28;20435;-72
2021/04/07 05:32:28;;;;;;;11.00;5.93;;;0.70;97.30;;;;;;5024381;28;20510;-72
2021/04/07 05:34:54;;;;;;;12.80;5.57;;;0.70;97.30;;;;;;5018776;28;20191;-72
2021/04/07 05:37:20;;;;;;;14.03;5.57;;;0.70;97.30;;;;;;5022222;28;20453;-71
2021/04/07 05:39:46;;;;;;;8.90;5.67;;;0.80;97.30;;;;;;5015953;28;20447;-71
2021/04/07 05:42:12;;;;;;;15.30;7.57;;;0.90;97.30;;;;;;5022694;28;20206;-72
2021/04/07 05:44:37;;;;;;;15.77;6.77;;;0.90;97.30;;;;;;5023478;28;20762;-71
2021/04/07 05:47:03;;;;;;;12.13;5.97;;;1.00;97.30;;;;;;5021822;28;20179;-71
2021/04/07 05:49:29;;;;;;;9.43;5.47;;;1.00;97.30;;;;;;5023036;28;20267;-72
2021/04/07 05:51:55;;;;;;;8.90;5.53;;;1.00;97.30;;;;;;5023662;28;20201;-72
2021/04/07 05:54:20;;;;;;;10.80;5.27;;;1.00;97.30;;;;;;5020501;28;20562;-71
2021/04/07 05:56:46;;;;;;;10.00;5.53;;;1.00;97.30;;;;;;5025640;28;20191;-71
2021/04/07 05:59:12;;;;;;;7.73;5.60;;;1.00;97.30;;;;;;5021599;28;20469;-72
2021/04/07 06:01:38;;;;;;;14.33;5.20;;;1.10;97.30;;;;;;5024928;28;20442;-72
2021/04/07 06:04:04;;;;;;;9.77;4.83;;;1.10;97.30;;;;;;5023464;28;20177;-72
2021/04/07 06:06:29;;;;;;;13.03;4.90;;;1.20;97.30;;;;;;5021425;28;20236;-72
2021/04/07 06:08:55;;;;;;;10.80;5.20;;;1.20;97.30;;;;;;5023273;28;20428;-72
2021/04/07 06:11:21;;;;;;;8.73;4.70;;;1.30;97.30;;;;;;5020770;28;20244;-72
2021/04/07 06:13:47;;;;;;;10.33;4.60;;;1.40;97.30;;;;;;5020453;28;20173;-72
2021/04/07 06:16:13;;;;;;;8.00;4.37;;;1.50;97.30;;;;;;5020686;28;20251;-72
2021/04/07 06:18:40;;;;;;;14.07;4.97;;;1.50;97.30;;;;;;5024496;28;20463;-71
2021/04/07 06:21:05;;;;;;;11.43;4.83;;;1.50;97.30;;;;;;5031919;28;20436;-72
2021/04/07 06:23:31;;;;;;;12.13;5.30;;;1.50;97.30;;;;;;5033276;28;20414;-71
2021/04/07 06:25:57;;;;;;;8.17;4.70;;;1.50;97.30;;;;;;5032059;28;20709;-72
2021/04/07 06:28:22;;;;;;;7.43;3.83;;;1.50;97.30;;;;;;5032670;28;20185;-71
2021/04/07 06:30:48;;;;;;;13.40;5.90;;;1.60;97.30;;;;;;5032842;28;20572;-71
2021/04/07 06:33:26;;;;;;;17.50;7.07;;;1.70;97.30;;;;;;5032721;28;20186;-71
2021/04/07 06:35:57;;;;;;;8.40;4.40;;;1.70;97.30;;;;;;5027908;28;20427;-71
2021/04/07 06:38:31;;;;;;;15.50;5.40;;;1.70;97.30;;;;;;5012588;28;20459;-71
2021/04/07 06:40:58;;;;;;;8.70;3.60;;;1.70;97.30;;;;;;5010997;28;20443;-71
2021/04/07 06:43:26;;;;;;;9.80;4.47;;;1.60;97.30;;;;;;5010750;28;20447;-71
2021/04/07 06:45:52;;;;;;;11.97;4.27;;;1.70;97.30;;;;;;5011279;28;20500;-72
2021/04/07 06:48:19;;;;;;;6.20;3.90;;;1.80;97.30;;;;;;5030150;28;20704;-71
2021/04/07 06:50:50;;;;;;;7.87;3.57;;;1.80;97.30;;;;;;5032443;28;20201;-72
2021/04/07 06:53:17;;;;;;;10.00;4.97;;;1.80;97.30;;;;;;5032801;28;20407;-71
2021/04/07 06:55:43;;;;;;;15.93;5.63;;;1.80;97.30;;;;;;5032167;28;20420;-71
2021/04/07 06:58:09;;;;;;;13.47;5.07;;;1.90;97.30;;;;;;5031699;28;20977;-72
2021/04/07 07:00:39;;;;;;;18.13;7.13;;;1.90;97.30;;;;;;5031160;28;20220;-71
2021/04/07 07:03:07;;;;;;;9.83;4.10;;;2.00;97.30;;;;;;5031490;28;20788;-70
2021/04/07 07:05:35;;;;;;;12.03;4.40;;;2.00;97.30;;;;;;5032939;28;20499;-71
2021/04/07 07:08:10;;;;;;;12.53;3.93;;;2.00;97.30;;;;;;5032521;28;20799;-70
2021/04/07 07:10:39;;;;;;;3.60;3.17;;;2.10;97.30;;;;;;5032012;28;20438;-70
2021/04/07 07:13:07;;;;;;;11.07;4.23;;;2.10;97.30;;;;;;5031216;28;20419;-70
2021/04/07 07:15:34;;;;;;;6.67;3.13;;;2.10;97.30;;;;;;5032102;28;20843;-70
2021/04/07 07:18:00;;;;;;;14.93;3.60;;;2.20;97.30;;;;;;5032380;28;20457;-70
2021/04/07 07:20:34;;;;;;;7.80;4.17;;;2.20;97.30;;;;;;5030883;28;20813;-70
2021/04/07 07:23:01;;;;;;;10.80;3.83;;;2.20;97.30;;;;;;5032155;28;20189;-70
2021/04/07 07:25:28;;;;;;;10.63;3.37;;;2.30;97.30;;;;;;5030616;28;20422;-69
2021/04/07 07:28:03;;;;;;;8.63;4.00;;;2.50;97.30;;;;;;5030689;28;20876;-69
2021/04/07 07:30:49;;;;;;;10.63;3.30;;;2.60;97.30;;;;;;5031766;28;20406;-69
2021/04/07 07:33:18;;;;;;;6.13;3.03;;;2.60;97.30;;;;;;5030390;28;20434;-69
2021/04/07 07:35:46;;;;;;;10.77;3.50;;;2.70;97.30;;;;;;5030991;28;20806;-69
2021/04/07 07:38:19;;;;;;;6.87;3.13;;;2.70;97.30;;;;;;5031874;28;20450;-69
2021/04/07 07:40:45;;;;;;;6.60;3.10;;;2.70;97.30;;;;;;5032060;28;20516;-69
2021/04/07 07:43:11;;;;;;;7.87;2.97;;;2.60;97.30;;;;;;5031815;28;20404;-69
2021/04/07 07:45:39;;;;;;;5.43;3.00;;;2.60;97.30;;;;;;5030664;28;20421;-69
2021/04/07 07:48:10;;;;;;;8.07;4.10;;;2.60;97.30;;;;;;5031901;28;20838;-69
2021/04/07 07:50:41;;;;;;;6.00;2.70;;;2.70;97.30;;;;;;5031028;28;20522;-69
2021/04/07 07:53:17;;;;;;;5.40;2.93;;;2.70;96.20;;;;;;5030630;28;20407;-69
2021/04/07 07:55:45;;;;;;;5.03;2.73;;;2.70;96.50;;;;;;5031738;28;20418;-69
2021/04/07 07:58:11;;;;;;;11.60;4.43;;;2.80;95.50;;;;;;5029969;28;20466;-69
2021/04/07 08:00:36;;;;;;;7.53;3.03;;;2.80;95.80;;;;;;5031538;28;20439;-69
2021/04/07 08:03:10;;;;;;;11.80;2.80;;;2.80;95.10;;;;;;5030340;28;20207;-69
2021/04/07 08:05:37;;;;;;;19.77;3.27;;;2.80;94.90;;;;;;5031544;28;20187;-69
2021/04/07 08:08:04;;;;;;;4.10;2.40;;;2.80;94.20;;;;;;5031720;28;20423;-69
2021/04/07 08:10:32;;;;;;;8.93;2.80;;;3.00;94.50;;;;;;5029580;28;20414;-69
2021/04/07 08:13:01;;;;;;;4.77;2.93;;;3.10;94.50;;;;;;5031610;28;20509;-69
2021/04/07 08:15:29;;;;;;;12.63;3.43;;;3.10;95.10;;;;;;5030683;28;20467;-69
2021/04/07 08:17:54;;;;;;;7.43;2.57;;;3.20;94.30;;;;;;5030074;28;20411;-69
2021/04/07 08:20:21;;;;;;;9.30;2.67;;;3.40;93.60;;;;;;5029652;28;20702;-69
2021/04/07 08:22:50;;;;;;;6.60;2.30;;;3.60;92.60;;;;;;5031265;28;20438;-69
2021/04/07 08:25:17;;;;;;;4.20;2.30;;;3.70;92.10;;;;;;5029636;28;20410;-69
2021/04/07 08:27:43;;;;;;;6.47;2.70;;;3.90;91.10;;;;;;5029620;28;20423;-69
2021/04/07 08:30:09;;;;;;;10.60;2.60;;;4.10;91.30;;;;;;5031768;28;20465;-69
2021/04/07 08:32:37;;;;;;;8.20;4.13;;;4.50;92.40;;;;;;5030788;28;20805;-69
2021/04/07 08:35:06;;;;;;;7.80;3.10;;;4.80;91.60;;;;;;5030065;28;20411;-69
2021/04/07 08:37:32;;;;;;;9.83;3.37;;;4.60;89.80;;;;;;5030749;28;20415;-70
2021/04/07 08:40:11;;;;;;;12.60;3.33;;;4.40;89.90;;;;;;5029399;28;20458;-69
2021/04/07 08:42:39;;;;;;;8.53;2.57;;;4.10;90.10;;;;;;5030844;28;20427;-69
2021/04/07 08:45:08;;;;;;;15.30;4.67;;;4.10;91.60;;;;;;5031713;28;20506;-69
2021/04/07 08:47:44;;;;;;;14.97;2.77;;;4.20;91.90;;;;;;5020277;28;20430;-68
2021/04/07 08:50:12;;;;;;;5.87;2.97;;;4.30;90.70;;;;;;5010689;28;20423;-69
2021/04/07 08:52:43;;;;;;;8.40;2.30;;;3.90;88.30;;;;;;5011070;28;20432;-69
2021/04/07 08:55:19;;;;;;;6.17;2.67;;;3.60;87.80;;;;;;5011134;28;20496;-69
2021/04/07 08:57:59;;;;;;;8.23;3.00;;;3.50;89.30;;;;;;5009918;28;20778;-69
2021/04/07 09:00:26;;;;;;;9.73;2.43;;;3.60;89.80;;;;;;5009851;28;20420;-69
2021/04/07 09:02:57;;;;;;;9.60;2.90;;;3.90;89.90;;;;;;5009531;28;20470;-69
2021/04/07 09:05:32;;;;;;;5.87;3.70;;;4.00;89.50;;;;;;5009868;28;20413;-69
2021/04/07 09:07:59;;;;;;;5.93;2.90;;;4.10;88.90;;;;;;5009800;28;20411;-69
2021/04/07 09:10:25;;;;;;;9.30;2.87;;;4.10;87.20;;;;;;5030592;28;20457;-69
2021/04/07 09:12:53;;;;;;;7.83;2.73;;;4.20;88.20;;;;;;5029290;28;20435;-69
2021/04/07 09:15:23;;;;;;;5.90;2.60;;;4.40;87.80;;;;;;5029026;28;20537;-71
2021/04/07 09:17:51;;;;;;;12.10;3.40;;;4.40;87.20;;;;;;5031095;28;20461;-68
2021/04/07 09:20:36;;;;;;;10.97;2.80;;;4.50;86.70;;;;;;5029202;28;20466;-68
2021/04/07 09:23:07;;;;;;;4.37;2.70;;;4.30;86.90;;;;;;5029395;28;20434;-69
2021/04/07 09:25:34;;;;;;;7.87;2.60;;;4.60;87.50;;;;;;5029072;28;20481;-68
2021/04/07 09:28:09;;;;;;;5.83;2.20;;;4.90;85.40;;;;;;5029478;28;20469;-68
2021/04/07 09:30:48;;;;;;;5.53;2.30;;;5.00;84.90;;;;;;5029329;28;20446;-69
2021/04/07 09:33:17;;;;;;;9.90;2.63;;;5.30;85.20;;;;;;5030507;28;20410;-69
2021/04/07 09:35:53;;;;;;;7.13;2.47;;;5.50;85.40;;;;;;5030592;28;20407;-69
2021/04/07 09:38:19;;;;;;;2.83;2.37;;;5.30;84.70;;;;;;5030022;28;20450;-69
2021/04/07 09:40:46;;;;;;;8.67;2.77;;;5.00;83.70;;;;;;5029092;28;20450;-70
2021/04/07 09:43:11;;;;;;;5.00;2.70;;;4.90;83.10;;;;;;5029237;28;20506;-69
2021/04/07 09:45:37;;;;;;;7.83;2.70;;;5.10;84.00;;;;;;5028927;28;20515;-69
2021/04/07 09:48:03;;;;;;;8.47;3.10;;;5.50;83.90;;;;;;5029304;28;20199;-71
2021/04/07 09:50:30;;;;;;;3.70;2.30;;;5.50;83.60;;;;;;5028907;28;20208;-71
2021/04/07 09:52:56;;;;;;;6.13;3.30;;;5.20;82.00;;;;;;5031921;28;20924;-71
2021/04/07 09:55:23;;;;;;;5.90;3.80;;;5.00;81.90;;;;;;5032317;28;20446;-71
2021/04/07 09:57:59;;;;;;;9.63;2.97;;;5.20;83.10;;;;;;5032701;28;20411;-71
2021/04/07 10:00:33;;;;;;;7.77;3.60;;;5.60;82.20;;;;;;5032768;28;20403;-70
2021/04/07 10:03:02;;;;;;;3.90;2.33;;;5.90;82.60;;;;;;5032420;28;20419;-71
2021/04/07 10:05:32;;;;;;;7.27;3.60;;;6.10;81.40;;;;;;5032765;28;20416;-72
2021/04/07 10:08:14;;;;;;;5.93;2.83;;;6.10;81.70;;;;;;5032771;28;20427;-70
2021/04/07 10:10:40;;;;;;;11.77;3.80;;;6.00;82.30;;;;;;5012611;28;20970;-71
2021/04/07 10:13:07;;;;;;;6.60;3.03;;;5.60;81.70;;;;;;5012591;28;20416;-71
2021/04/07 10:15:33;;;;;;;9.20;3.30;;;5.70;81.30;;;;;;5026165;23;20267;-74
2021/04/07 10:18:05;;;;;;;4.23;3.03;;;6.10;83.10;;;;;;5013161;28;20536;-74
2021/04/07 10:20:31;;;;;;;5.73;3.40;;;6.50;80.40;;;;;;5012267;28;20683;-74
2021/04/07 10:22:57;;;;;;;4.47;2.90;;;6.90;81.10;;;;;;5012142;28;20424;-73
2021/04/07 10:25:26;;;;;;;8.03;3.50;;;6.90;79.60;;;;;;5012454;28;20324;-74
2021/04/07 10:27:51;;;;;;;6.47;3.23;;;6.80;79.60;;;;;;5012229;28;20416;-74
2021/04/07 10:30:19;;;;;;;8.13;4.00;;;6.70;79.40;;;;;;5012080;28;20787;-74
2021/04/07 10:32:54;;;;;;;5.50;3.20;;;6.50;79.50;;;;;;5012202;28;20209;-73
2021/04/07 10:35:19;;;;;;;4.03;2.80;;;6.10;80.20;;;;;;5013544;28;20411;-73
2021/04/07 10:37:56;;;;;;;8.20;3.53;;;5.90;81.00;;;;;;5013163;28;20488;-72
2021/04/07 10:40:24;;;;;;;6.90;3.37;;;5.60;80.10;;;;;;5011953;28;20185;-73
2021/04/07 10:42:50;;;;;;;6.30;2.87;;;5.60;80.80;;;;;;5013060;28;20440;-73
2021/04/07 10:45:20;;;;;;;7.67;3.00;;;5.70;78.40;;;;;;5013282;28;20416;-74
2021/04/07 10:47:48;;;;;;;5.73;2.93;;;5.80;78.40;;;;;;5011691;28;20200;-73
2021/04/07 10:50:15;;;;;;;5.57;2.93;;;6.00;79.40;;;;;;5010959;28;20432;-73
2021/04/07 10:52:46;;;;;;;9.83;3.37;;;6.40;79.60;;;;;;5004308;28;20428;-73
2021/04/07 10:55:21;;;;;;;8.70;3.57;;;6.70;78.50;;;;;;5011508;28;20887;-73
2021/04/07 10:57:48;;;;;;;5.80;3.50;;;6.80;79.10;;;;;;4995597;28;20514;-72
2021/04/07 11:00:32;;;;;;;7.50;4.30;;;6.50;78.50;;;;;;5012546;28;20459;-73
2021/04/07 11:02:58;;;;;;;5.10;3.17;;;6.20;79.60;;;;;;5012037;28;20435;-72
2021/04/07 11:05:58;;;;;;;5.13;3.40;;;6.10;79.00;;;;;;5011360;28;20456;-72
2021/04/07 11:08:34;;;;;;;8.37;3.33;;;6.20;79.50;;;;;;4979392;28;20491;-71
2021/04/07 11:11:00;;;;;;;11.00;3.20;;;6.40;79.50;;;;;;5011346;28;20443;-73
2021/04/07 11:13:26;;;;;;;7.10;2.90;;;6.60;77.90;;;;;;5011328;28;20412;-74
2021/04/07 11:15:52;;;;;;;8.57;3.80;;;6.90;78.70;;;;;;5012369;28;20797;-73
2021/04/07 11:18:29;;;;;;;7.80;3.80;;;6.90;78.00;;;;;;5012592;28;20444;-74
2021/04/07 11:20:55;;;;;;;5.47;3.63;;;6.70;78.20;;;;;;5011382;28;20200;-74
2021/04/07 11:23:21;;;;;;;5.53;3.20;;;6.40;79.20;;;;;;5012511;28;20412;-73
2021/04/07 11:25:48;;;;;;;5.60;3.17;;;6.30;79.90;;;;;;5011224;28;20482;-73
2021/04/07 11:28:21;;;;;;;6.20;3.37;;;6.50;79.10;;;;;;5012171;28;20173;-75
2021/04/07 11:31:07;;;;;;;4.83;3.50;;;6.80;79.40;;;;;;5012241;28;20679;-72
2021/04/07 11:39:12;;;;;;;7.43;4.10;;;7.30;76.60;;;;;;5012702;28;20458;-73
2021/04/07 11:46:35;;;;;;;8.20;3.17;;;7.70;76.80;;;;;;5012148;28;20420;-74
2021/04/07 11:49:02;;;;;;;5.83;3.37;;;8.00;77.30;;;;;;5010795;28;20649;-73
2021/04/07 11:51:28;;;;;;;5.77;3.67;;;8.00;76.50;;;;;;5011185;28;20493;-73
2021/04/07 11:53:53;;;;;;;8.83;3.20;;;7.90;76.20;;;;;;5010895;28;20436;-73
2021/04/07 11:56:19;;;;;;;5.20;3.60;;;7.50;76.70;;;;;;5010720;28;20192;-73
2021/04/07 11:58:45;;;;;;;4.63;2.90;;;6.90;77.70;;;;;;5009193;28;20244;-74
2021/04/07 12:01:11;;;;;;;10.07;4.50;;;6.80;78.70;;;;;;4990917;28;20214;-74
2021/04/07 12:03:37;;;;;;;5.77;3.70;;;6.90;78.50;;;;;;4991529;28;20426;-74
2021/04/07 12:06:03;;;;;;;6.40;3.50;;;7.00;78.10;;;;;;4991699;28;20417;-73
2021/04/07 12:08:29;;;;;;;4.93;3.40;;;7.00;78.80;;;;;;4995150;28;20181;-74
2021/04/07 12:10:58;;;;;;;7.47;3.30;;;6.90;79.60;;;;;;5011972;28;20432;-70
2021/04/07 12:13:24;;;;;;;9.50;5.13;;;7.00;79.50;;;;;;5009876;28;21013;-71
2021/04/07 12:15:49;;;;;;;12.40;3.90;;;6.80;79.40;;;;;;5010814;28;20503;-74
2021/04/07 12:18:15;;;;;;;4.73;2.90;;;6.80;79.80;;;;;;5010163;28;20201;-73
2021/04/07 12:20:41;;;;;;;3.80;2.90;;;6.80;79.60;;;;;;5010126;28;20207;-72
2021/04/07 12:23:06;;;;;;;7.47;3.50;;;6.80;79.60;;;;;;5011345;28;20227;-75
2021/04/07 12:25:32;;;;;;;7.47;3.50;;;6.70;79.10;;;;;;5010339;28;20223;-74
2021/04/07 12:27:58;;;;;;;4.70;3.40;;;6.70;80.10;;;;;;5010174;28;20181;-74
2021/04/07 12:30:24;;;;;;;4.30;3.63;;;6.90;80.10;;;;;;5009981;28;20264;-74
2021/04/07 12:32:50;;;;;;;8.43;4.20;;;6.80;79.90;;;;;;5010567;28;20201;-74
2021/04/07 12:38:19;;;;;;;4.17;3.00;;;6.40;80.30;;;;;;5011077;28;20538;-74
2021/04/07 12:40:47;;;;;;;5.97;3.20;;;6.30;80.00;;;;;;5010114;28;20436;-74
2021/04/07 12:43:13;;;;;;;4.13;3.00;;;6.40;80.70;;;;;;5010229;28;20600;-74
2021/04/07 12:45:39;;;;;;;3.60;3.00;;;6.50;80.80;;;;;;5010235;28;20424;-75
2021/04/07 12:48:06;;;;;;;5.33;3.20;;;6.50;80.70;;;;;;5006921;28;20189;-74
2021/04/07 12:50:32;;;;;;;5.80;2.83;;;6.50;80.50;;;;;;5008094;28;20923;-75
2021/04/07 12:52:57;;;;;;;4.53;3.00;;;6.40;81.10;;;;;;4991325;28;20455;-74
2021/04/07 12:55:23;;;;;;;6.87;3.40;;;6.30;80.70;;;;;;4990244;28;20265;-75
2021/04/07 12:57:49;;;;;;;5.23;3.30;;;6.30;81.30;;;;;;4996722;28;20579;-75
2021/04/07 13:00:15;;;;;;;8.93;3.70;;;6.20;81.60;;;;;;5006432;28;20699;-74
2021/04/07 13:02:41;;;;;;;6.20;3.57;;;6.10;82.50;;;;;;5010906;28;20173;-75
2021/04/07 13:05:07;;;;;;;5.93;3.77;;;6.10;83.10;;;;;;5006855;28;20427;-75
2021/04/07 13:07:33;;;;;;;5.60;3.07;;;6.10;83.20;;;;;;5009259;28;20422;-75
2021/04/07 13:09:59;;;;;;;7.00;3.10;;;6.20;83.60;;;;;;5008033;28;20416;-75